Time;durP1;ratioP1;P1;durP2;ratioP2;P2;SDS_P1;SDS_P2;PMS_P1;PMS_P2;Temp;Humidity;BMP_temperature;BMP_pressure;BME280_temperature;BME280_humidity;BME280_pressure;Samples;Min_cycle;Max_cycle;Signal;HPM_P1;HPM_P2
2022/11/15 00:01:55;;;;;;;22.17;19.60;;;-25.90;99.90;;;;;;5093308;28;20187;-76
2022/11/15 00:04:21;;;;;;;32.27;21.00;;;-25.90;99.90;;;;;;5090049;28;20244;-76
2022/11/15 00:06:47;;;;;;;22.73;19.53;;;-23.40;99.90;;;;;;5092062;28;20175;-74
2022/11/15 00:09:12;;;;;;;28.27;20.70;;;-20.80;99.90;;;;;;5085643;28;20240;-76
2022/11/15 00:11:38;;;;;;;31.00;22.70;;;-23.10;99.90;;;;;;5088977;28;20186;-76
2022/11/15 00:14:04;;;;;;;23.57;19.73;;;-23.10;99.90;;;;;;5089207;28;20478;-74
2022/11/15 00:16:29;;;;;;;27.13;21.27;;;-22.00;99.90;;;;;;5096548;28;20198;-74
2022/11/15 00:18:57;;;;;;;31.07;21.00;;;-20.20;99.90;;;;;;5097887;28;20206;-75
2022/11/15 00:21:22;;;;;;;21.77;19.30;;;-21.20;99.90;;;;;;5086349;28;20167;-77
2022/11/15 00:23:48;;;;;;;24.83;21.73;;;-21.70;99.90;;;;;;5091088;28;20475;-76
2022/11/15 00:26:15;;;;;;;22.87;20.47;;;-21.20;99.90;;;;;;5092218;28;20577;-77
2022/11/15 00:28:41;;;;;;;27.37;22.73;;;-18.80;99.90;;;;;;5089773;28;20772;-76
2022/11/15 00:31:11;;;;;;;25.60;21.83;;;-20.70;99.90;;;;;;5092548;28;20651;-76
2022/11/15 00:33:37;;;;;;;29.50;24.07;;;-25.10;99.90;;;;;;5093762;28;20201;-76
2022/11/15 00:36:09;;;;;;;27.17;21.87;;;-21.50;99.90;;;;;;5093321;28;20850;-75
2022/11/15 00:38:36;;;;;;;25.33;21.57;;;-23.40;99.90;;;;;;5096819;28;20647;-75
2022/11/15 00:41:04;;;;;;;25.47;21.47;;;-20.90;99.90;;;;;;5079579;28;20287;-76
2022/11/15 00:43:30;;;;;;;25.73;22.97;;;-18.70;99.90;;;;;;5090630;28;20269;-76
2022/11/15 00:45:56;;;;;;;35.33;23.87;;;-20.60;99.90;;;;;;5096407;28;20548;-77
2022/11/15 00:48:21;;;;;;;30.90;23.30;;;-18.70;99.90;;;;;;5097103;28;20636;-77
2022/11/15 00:50:48;;;;;;;31.33;23.83;;;-17.00;99.90;;;;;;5111501;27;20232;-73
2022/11/15 00:53:14;;;;;;;30.27;23.53;;;-16.90;99.90;;;;;;5094360;28;20199;-74
2022/11/15 00:55:40;;;;;;;35.03;24.10;;;-16.60;99.90;;;;;;5093157;28;20202;-74
2022/11/15 00:58:06;;;;;;;28.23;23.50;;;-17.80;99.90;;;;;;5086786;28;20206;-74
2022/11/15 01:00:32;;;;;;;29.27;22.83;;;-18.30;99.90;;;;;;5113655;27;20181;-76
2022/11/15 01:02:57;;;;;;;35.73;26.80;;;-20.20;99.90;;;;;;5097071;28;20195;-76
2022/11/15 01:05:23;;;;;;;30.60;22.77;;;-18.30;99.90;;;;;;5091194;28;20186;-74
2022/11/15 01:07:53;;;;;;;39.43;26.27;;;-20.10;99.90;;;;;;5082355;28;21085;-77
2022/11/15 01:10:20;;;;;;;31.43;23.83;;;-17.80;99.90;;;;;;5097305;28;20167;-75
2022/11/15 01:12:46;;;;;;;32.43;24.97;;;-17.30;99.90;;;;;;5101981;27;20178;-75
2022/11/15 01:15:11;;;;;;;35.57;24.87;;;-19.00;99.90;;;;;;5086398;28;20187;-74
2022/11/15 01:17:37;;;;;;;32.73;26.37;;;-20.70;99.90;;;;;;5082609;28;20632;-75
2022/11/15 01:20:04;;;;;;;30.07;23.50;;;-22.00;99.90;;;;;;5092223;28;20609;-75
2022/11/15 01:22:30;;;;;;;29.87;24.30;;;-18.20;99.90;;;;;;5095879;28;20177;-75
2022/11/15 01:24:55;;;;;;;28.77;23.43;;;-17.30;99.90;;;;;;5096772;28;20254;-77
2022/11/15 01:27:21;;;;;;;33.43;25.97;;;-15.10;99.90;;;;;;5091747;28;20186;-75
2022/11/15 01:29:47;;;;;;;41.00;25.57;;;-16.20;99.90;;;;;;5091079;28;20174;-76
2022/11/15 01:32:13;;;;;;;32.63;24.33;;;-15.30;99.90;;;;;;5089830;28;20183;-74
2022/11/15 01:34:39;;;;;;;29.10;21.83;;;-16.90;99.90;;;;;;5089789;28;20258;-77
2022/11/15 01:37:05;;;;;;;31.30;23.37;;;-17.10;99.90;;;;;;5088829;28;20606;-75
2022/11/15 01:39:31;;;;;;;29.00;22.37;;;-15.60;99.90;;;;;;5092444;28;20232;-75
2022/11/15 01:41:57;;;;;;;29.07;22.80;;;-16.30;99.90;;;;;;5096768;28;20178;-74
2022/11/15 01:44:43;;;;;;;23.30;20.70;;;-19.20;99.90;;;;;;5096579;28;20170;-75
2022/11/15 01:47:15;;;;;;;25.90;20.67;;;-22.90;99.90;;;;;;5096374;28;20586;-77
2022/11/15 01:49:49;;;;;;;25.33;20.20;;;-21.60;99.90;;;;;;5096310;28;20178;-75
2022/11/15 01:52:19;;;;;;;20.07;18.03;;;-21.20;99.90;;;;;;5092923;28;20532;-74
2022/11/15 01:54:47;;;;;;;21.87;19.03;;;-22.50;99.90;;;;;;5089689;28;20171;-75
2022/11/15 01:57:13;;;;;;;17.97;16.03;;;-19.50;99.90;;;;;;5084044;28;20683;-75
2022/11/15 01:59:43;;;;;;;23.43;17.73;;;-19.80;99.90;;;;;;5087102;28;20181;-74
2022/11/15 02:02:09;;;;;;;19.13;16.43;;;-19.30;99.90;;;;;;5087348;28;20191;-75
2022/11/15 02:04:46;;;;;;;19.63;17.40;;;-18.70;99.90;;;;;;5090072;28;20182;-75
2022/11/15 02:07:17;;;;;;;19.40;16.23;;;-21.70;99.90;;;;;;5090835;28;20188;-76
2022/11/15 02:09:44;;;;;;;20.63;16.30;;;-19.40;99.90;;;;;;5086739;28;20179;-74
2022/11/15 02:12:13;;;;;;;16.97;15.23;;;-23.00;99.90;;;;;;5088530;28;20216;-74
2022/11/15 02:14:42;;;;;;;20.83;15.77;;;-21.40;99.90;;;;;;5091514;28;20171;-73
2022/11/15 02:17:55;;;;;;;22.77;15.00;;;-20.70;99.90;;;;;;5089806;28;20207;-73
2022/11/15 02:20:54;;;;;;;21.97;14.77;;;-18.90;99.90;;;;;;5090345;28;20174;-73
2022/11/15 02:23:58;;;;;;;21.83;15.30;;;-19.50;99.90;;;;;;5093753;28;20168;-75
2022/11/15 02:27:01;;;;;;;16.80;15.03;;;-18.70;99.90;;;;;;5093870;28;20265;-76
2022/11/15 02:29:42;;;;;;;18.33;14.67;;;-20.30;99.90;;;;;;5078126;28;20175;-74
2022/11/15 02:32:32;;;;;;;17.67;15.03;;;-21.50;99.90;;;;;;5090636;28;20458;-74
2022/11/15 02:35:32;;;;;;;18.00;14.00;;;-20.40;99.90;;;;;;5106310;27;20186;-74
2022/11/15 02:38:30;;;;;;;20.57;17.83;;;-19.50;99.90;;;;;;5095968;28;20190;-76
2022/11/15 02:41:04;;;;;;;17.37;15.57;;;-17.20;99.90;;;;;;5089575;28;20198;-73
2022/11/15 02:43:57;;;;;;;16.03;14.23;;;-17.20;99.90;;;;;;5082128;28;20496;-75
2022/11/15 02:49:28;;;;;;;19.00;14.20;;;-17.90;99.90;;;;;;5094453;28;20233;-73
2022/11/15 02:51:55;;;;;;;18.00;14.17;;;-16.10;99.90;;;;;;5088336;28;20290;-74
2022/11/15 02:54:29;;;;;;;19.27;14.70;;;-17.90;99.90;;;;;;5092361;28;20174;-75
2022/11/15 02:57:00;;;;;;;15.40;12.37;;;-18.30;99.90;;;;;;5090645;28;20289;-76
2022/11/15 02:59:41;;;;;;;16.17;14.20;;;-19.00;99.90;;;;;;5087022;28;20186;-75
2022/11/15 03:02:42;;;;;;;13.07;11.63;;;-19.90;99.90;;;;;;5088852;28;20189;-74
2022/11/15 03:05:17;;;;;;;14.27;12.77;;;-20.40;99.90;;;;;;5082844;28;20279;-74
2022/11/15 03:08:27;;;;;;;22.17;14.27;;;-19.10;99.90;;;;;;5088747;28;20182;-74
2022/11/15 03:11:11;;;;;;;18.47;13.57;;;-18.60;99.90;;;;;;5083889;28;20269;-75
2022/11/15 03:14:00;;;;;;;12.93;11.60;;;-17.80;99.90;;;;;;5087466;28;20177;-74
2022/11/15 03:16:41;;;;;;;14.63;10.57;;;-16.50;99.90;;;;;;5089142;28;20214;-75
2022/11/15 03:19:16;;;;;;;19.60;13.87;;;-18.10;99.90;;;;;;5088724;28;20266;-73
2022/11/15 03:21:42;;;;;;;15.43;12.47;;;-17.60;99.90;;;;;;5094134;28;20228;-75
2022/11/15 03:24:09;;;;;;;12.97;10.53;;;-17.30;99.90;;;;;;5089267;28;20203;-75
2022/11/15 03:26:38;;;;;;;19.50;10.07;;;-17.30;99.90;;;;;;5093038;28;20685;-74
2022/11/15 03:29:11;;;;;;;12.43;9.60;;;-18.80;99.90;;;;;;5096299;28;20196;-74
2022/11/15 03:31:47;;;;;;;12.67;9.77;;;-18.70;99.90;;;;;;5098144;28;20270;-74
2022/11/15 03:34:49;;;;;;;11.33;9.57;;;-13.90;99.90;;;;;;5092952;28;20178;-76
2022/11/15 03:37:17;;;;;;;22.47;8.50;;;-18.90;99.90;;;;;;5094107;28;20568;-75
2022/11/15 03:39:44;;;;;;;13.53;8.60;;;-15.20;99.90;;;;;;5099182;28;20205;-77
2022/11/15 03:42:27;;;;;;;12.07;8.93;;;-17.90;99.90;;;;;;5096259;28;20199;-75
2022/11/15 03:45:17;;;;;;;14.77;7.47;;;-13.60;99.90;;;;;;5086495;28;20240;-77
2022/11/15 03:47:54;;;;;;;11.57;7.77;;;-13.30;99.90;;;;;;5085257;28;20179;-74
2022/11/15 03:50:22;;;;;;;10.67;8.07;;;-14.20;99.90;;;;;;5090088;28;20187;-73
2022/11/15 03:52:49;;;;;;;8.80;7.60;;;-14.20;99.90;;;;;;5095255;28;20745;-77
2022/11/15 03:55:20;;;;;;;14.33;6.97;;;-18.00;99.90;;;;;;5098395;28;20597;-76
2022/11/15 03:57:50;;;;;;;14.00;7.60;;;-15.70;99.90;;;;;;5090074;28;20233;-73
2022/11/15 04:00:16;;;;;;;12.67;7.00;;;-14.60;99.90;;;;;;5091731;28;20246;-76
2022/11/15 04:02:42;;;;;;;7.07;6.23;;;-19.20;99.90;;;;;;5090761;28;20601;-77
2022/11/15 04:05:08;;;;;;;9.93;7.13;;;-17.10;99.90;;;;;;5090828;28;20243;-74
2022/11/15 04:07:34;;;;;;;9.70;6.97;;;-12.30;99.90;;;;;;5085257;28;21043;-75
2022/11/15 04:10:02;;;;;;;12.87;7.20;;;-12.60;99.90;;;;;;5098116;28;20186;-75
2022/11/15 04:12:40;;;;;;;7.97;6.90;;;-13.00;99.90;;;;;;5098488;28;20179;-76
2022/11/15 04:15:09;;;;;;;9.07;6.40;;;-13.20;99.90;;;;;;5091893;28;20170;-74
2022/11/15 04:17:46;;;;;;;8.53;7.50;;;-13.80;99.90;;;;;;5093559;28;20290;-74
2022/11/15 04:26:09;;;;;;;9.07;6.90;;;-16.10;99.90;;;;;;5099184;28;20848;-73
2022/11/15 04:29:33;;;;;;;8.77;7.87;;;-14.90;99.90;;;;;;5094402;28;20285;-74
2022/11/15 04:31:22;;;;;;;9.40;7.13;;;-15.20;99.90;;;;;;5096899;28;20191;-75
2022/11/15 04:33:47;;;;;;;10.07;8.77;;;-16.80;99.90;;;;;;5093872;28;20183;-75
2022/11/15 04:38:58;;;;;;;10.60;7.97;;;-16.10;99.90;;;;;;5089986;28;20186;-74
2022/11/15 04:41:24;;;;;;;9.07;8.07;;;-15.70;99.90;;;;;;5096362;28;20175;-75
2022/11/15 04:43:50;;;;;;;12.57;8.50;;;-15.60;99.90;;;;;;5096923;28;20185;-76
2022/11/15 04:46:15;;;;;;;9.63;7.27;;;-14.30;99.90;;;;;;5086976;28;20257;-76
2022/11/15 04:48:42;;;;;;;7.73;6.53;;;-12.00;99.90;;;;;;5093944;28;20183;-76
2022/11/15 04:51:07;;;;;;;9.93;7.00;;;-14.60;99.90;;;;;;5084141;28;20541;-73
2022/11/15 04:53:33;;;;;;;9.03;6.57;;;-14.70;99.90;;;;;;5084595;28;20278;-75
2022/11/15 04:55:59;;;;;;;12.30;7.10;;;-11.80;99.90;;;;;;5093633;28;20210;-76
2022/11/15 04:58:24;;;;;;;7.93;5.57;;;-13.90;99.90;;;;;;5089826;28;20211;-75
2022/11/15 05:00:50;;;;;;;10.83;6.23;;;-15.60;99.90;;;;;;5097403;28;20198;-74
2022/11/15 05:06:00;;;;;;;8.37;6.17;;;-14.90;99.90;;;;;;5091825;28;20193;-77
2022/11/15 05:08:26;;;;;;;8.90;6.03;;;-11.90;99.90;;;;;;5092112;28;20187;-74
2022/11/15 05:10:52;;;;;;;13.03;5.97;;;-12.20;99.90;;;;;;5093408;28;20185;-75
2022/11/15 05:13:19;;;;;;;7.50;5.50;;;-16.40;99.90;;;;;;5091412;28;20182;-74
2022/11/15 05:15:44;;;;;;;6.53;4.70;;;-17.20;99.90;;;;;;5093051;28;20236;-78
2022/11/15 05:18:10;;;;;;;5.57;5.17;;;-17.50;99.90;;;;;;5097188;28;20217;-76
2022/11/15 05:20:36;;;;;;;6.43;5.30;;;-17.60;99.90;;;;;;5097127;28;20171;-76
2022/11/15 05:23:02;;;;;;;11.07;5.43;;;-17.40;99.90;;;;;;5096878;28;20191;-75
2022/11/15 05:25:28;;;;;;;8.43;4.70;;;-18.00;99.90;;;;;;5096646;28;20217;-75
2022/11/15 05:27:54;;;;;;;6.53;5.27;;;-17.00;99.90;;;;;;5097301;28;20243;-75
2022/11/15 05:30:20;;;;;;;8.03;4.53;;;-16.00;99.90;;;;;;5094727;28;20186;-74
2022/11/15 05:32:47;;;;;;;7.53;4.87;;;-14.60;99.90;;;;;;5088384;28;20175;-76
2022/11/15 05:35:31;;;;;;;17.83;5.17;;;-19.00;99.90;;;;;;5085126;28;20227;-75
2022/11/15 05:37:57;;;;;;;14.50;5.43;;;-16.50;99.90;;;;;;5088720;28;20193;-75
2022/11/15 05:40:23;;;;;;;7.03;4.97;;;-13.60;99.90;;;;;;5090944;28;20618;-76
2022/11/15 05:42:50;;;;;;;5.67;4.13;;;-14.90;99.90;;;;;;5091054;28;20173;-74
2022/11/15 05:45:16;;;;;;;16.20;5.07;;;-13.90;99.90;;;;;;5096264;28;20621;-74
2022/11/15 05:47:43;;;;;;;8.77;4.27;;;-15.60;99.90;;;;;;5091049;28;20247;-76
2022/11/15 05:50:12;;;;;;;5.40;4.67;;;-16.30;99.90;;;;;;5083666;28;20174;-76
2022/11/15 05:52:38;;;;;;;11.13;5.13;;;-15.00;99.90;;;;;;5089508;28;20205;-76
2022/11/15 05:55:06;;;;;;;10.63;4.47;;;-15.00;99.90;;;;;;5087237;28;20193;-75
2022/11/15 05:57:32;;;;;;;8.23;6.00;;;-13.80;99.90;;;;;;5089243;28;20212;-75
2022/11/15 05:59:58;;;;;;;15.53;5.97;;;-15.90;99.90;;;;;;5096662;28;20171;-74
2022/11/15 06:02:24;;;;;;;7.87;5.20;;;-18.70;99.90;;;;;;5091951;28;20602;-75
2022/11/15 06:04:50;;;;;;;8.57;5.37;;;-14.00;99.90;;;;;;5096419;28;20186;-74
2022/11/15 06:07:16;;;;;;;9.27;6.30;;;-15.50;99.90;;;;;;5079343;28;20179;-75
2022/11/15 06:09:42;;;;;;;7.13;6.23;;;-13.40;99.90;;;;;;5090705;28;20196;-77
2022/11/15 06:12:07;;;;;;;8.93;5.03;;;-13.80;99.90;;;;;;5088629;28;20178;-74
2022/11/15 06:14:33;;;;;;;5.70;4.63;;;-14.90;99.90;;;;;;5095982;28;20531;-74
2022/11/15 06:16:59;;;;;;;7.63;5.13;;;-16.60;99.90;;;;;;5095954;28;20206;-77
2022/11/15 06:19:24;;;;;;;7.43;5.30;;;-16.20;99.90;;;;;;5087882;28;20180;-73
2022/11/15 06:21:50;;;;;;;15.30;5.47;;;-14.70;99.90;;;;;;5096122;28;20175;-76
2022/11/15 06:24:16;;;;;;;12.77;5.23;;;-15.40;99.90;;;;;;5083738;28;20616;-74
2022/11/15 06:26:42;;;;;;;12.83;6.07;;;-11.80;99.90;;;;;;5091842;28;20242;-76
2022/11/15 06:29:08;;;;;;;9.83;6.47;;;-12.60;99.90;;;;;;5096015;28;20261;-75
2022/11/15 06:31:34;;;;;;;9.67;5.33;;;-13.00;99.90;;;;;;5095286;28;20569;-76
2022/11/15 06:34:00;;;;;;;17.40;5.30;;;-15.50;99.90;;;;;;5090864;28;20500;-77
2022/11/15 06:36:26;;;;;;;8.00;5.60;;;-14.70;99.90;;;;;;5091518;28;20192;-77
2022/11/15 06:38:51;;;;;;;7.33;4.90;;;-12.60;99.90;;;;;;5092065;28;20184;-74
2022/11/15 06:41:17;;;;;;;9.17;5.13;;;-11.50;99.90;;;;;;5091192;28;20250;-76
2022/11/15 06:43:43;;;;;;;7.63;4.40;;;-12.10;99.90;;;;;;5087356;28;20174;-77
2022/11/15 06:46:09;;;;;;;6.20;4.87;;;-13.60;99.90;;;;;;5084229;28;20188;-76
2022/11/15 06:48:36;;;;;;;8.83;4.50;;;-13.40;99.90;;;;;;5091539;28;20241;-75
2022/11/15 06:51:03;;;;;;;5.60;4.57;;;-13.00;99.90;;;;;;5093566;28;20503;-76
2022/11/15 06:53:29;;;;;;;5.13;4.53;;;-12.50;99.90;;;;;;5095395;28;20224;-78
2022/11/15 06:56:00;;;;;;;12.87;4.80;;;-14.10;99.90;;;;;;5094330;28;20621;-75
2022/11/15 06:58:26;;;;;;;7.20;4.67;;;-12.10;99.90;;;;;;5087835;28;20208;-75
2022/11/15 07:00:51;;;;;;;13.50;6.03;;;-14.20;99.90;;;;;;5095391;28;20213;-78
2022/11/15 07:03:17;;;;;;;10.17;5.20;;;-12.50;99.90;;;;;;5095732;28;20193;-80
2022/11/15 07:05:54;;;;;;;8.77;5.77;;;-11.00;99.90;;;;;;5091340;28;20200;-76
2022/11/15 07:08:20;;;;;;;8.83;5.50;;;-10.50;99.90;;;;;;5086380;28;20177;-79
2022/11/15 07:10:46;;;;;;;12.80;5.17;;;-12.10;99.90;;;;;;5091056;28;20218;-77
2022/11/15 07:13:12;;;;;;;5.77;5.27;;;-12.20;99.90;;;;;;5094015;28;20187;-74
2022/11/15 07:15:37;;;;;;;11.37;5.80;;;-13.50;99.90;;;;;;5090750;28;20257;-71
2022/11/15 07:18:03;;;;;;;11.13;5.93;;;-12.30;99.90;;;;;;5094895;28;20192;-72
2022/11/15 07:20:29;;;;;;;9.57;5.57;;;-12.10;99.90;;;;;;5091943;28;20545;-77
2022/11/15 07:23:02;;;;;;;5.80;5.40;;;-15.00;99.90;;;;;;5099451;28;20288;-75
2022/11/15 07:25:28;;;;;;;8.93;4.87;;;-14.10;99.90;;;;;;5099097;28;20196;-74
2022/11/15 07:27:56;;;;;;;7.87;5.30;;;-14.50;99.90;;;;;;5093201;28;20192;-74
2022/11/15 07:30:22;;;;;;;12.03;5.73;;;-13.90;99.90;;;;;;5092910;28;20218;-73
2022/11/15 07:32:51;;;;;;;9.23;5.83;;;-13.50;99.90;;;;;;5083518;28;20221;-73
2022/11/15 07:35:17;;;;;;;7.00;5.83;;;-15.20;99.90;;;;;;5093463;28;20185;-76
2022/11/15 07:37:43;;;;;;;5.10;4.67;;;-15.40;99.90;;;;;;5097552;28;20205;-74
2022/11/15 07:40:09;;;;;;;6.87;5.23;;;-14.50;99.90;;;;;;5098991;28;20173;-76
2022/11/15 07:42:53;;;;;;;12.27;5.73;;;-14.30;99.90;;;;;;5091745;28;20580;-76
2022/11/15 07:45:20;;;;;;;8.57;6.03;;;-15.70;99.90;;;;;;5098982;28;20175;-75
2022/11/15 07:47:47;;;;;;;8.33;5.53;;;-14.50;99.90;;;;;;5087942;28;20271;-73
2022/11/15 07:50:13;;;;;;;9.67;5.03;;;-15.20;99.90;;;;;;5091514;28;20238;-71
2022/11/15 07:52:39;;;;;;;8.50;5.67;;;-15.40;99.90;;;;;;5098688;28;20212;-71
2022/11/15 07:55:05;;;;;;;13.10;5.67;;;-15.00;99.90;;;;;;5098374;28;20230;-75
2022/11/15 07:57:31;;;;;;;5.57;5.07;;;-17.40;99.90;;;;;;5090667;28;20202;-72
2022/11/15 07:59:56;;;;;;;13.63;6.17;;;-14.20;99.90;;;;;;5088298;28;20590;-72
2022/11/15 08:02:22;;;;;;;6.63;5.37;;;-14.90;99.90;;;;;;5097918;28;20194;-72
2022/11/15 08:04:48;;;;;;;7.80;5.17;;;-17.00;99.90;;;;;;5081086;28;20208;-73
2022/11/15 08:07:14;;;;;;;11.67;5.83;;;-14.50;99.90;;;;;;5095216;28;20195;-73
2022/11/15 08:09:39;;;;;;;5.67;4.63;;;-14.30;99.90;;;;;;5093517;28;20599;-73
2022/11/15 08:12:05;;;;;;;5.27;4.27;;;-14.40;99.90;;;;;;5095119;28;20189;-73
2022/11/15 08:14:31;;;;;;;5.60;4.70;;;-13.20;99.90;;;;;;5094602;28;20342;-75
2022/11/15 08:16:57;;;;;;;11.33;4.47;;;-12.70;99.90;;;;;;5105495;28;20230;-75
2022/11/15 08:19:22;;;;;;;4.33;3.30;;;-16.70;99.90;;;;;;5098905;28;20587;-72
2022/11/15 08:21:48;;;;;;;5.17;2.90;;;-16.20;99.90;;;;;;5096049;28;20208;-76
2022/11/15 08:24:14;;;;;;;5.87;3.53;;;-14.90;99.90;;;;;;5093612;28;20177;-75
2022/11/15 08:26:40;;;;;;;5.37;3.57;;;-15.20;99.90;;;;;;5090906;28;20184;-73
2022/11/15 08:29:08;;;;;;;4.23;3.07;;;-15.20;99.90;;;;;;5095705;28;20185;-72
2022/11/15 08:31:36;;;;;;;7.13;2.70;;;-13.90;99.90;;;;;;5085546;28;20174;-74
2022/11/15 08:34:03;;;;;;;6.33;2.87;;;-14.30;99.90;;;;;;5092063;28;20239;-76
2022/11/15 08:36:29;;;;;;;8.20;2.67;;;-16.70;99.90;;;;;;5113109;27;20617;-73
2022/11/15 08:38:54;;;;;;;5.67;2.60;;;-16.70;99.90;;;;;;5098650;28;20222;-73
2022/11/15 08:41:32;;;;;;;7.73;3.07;;;-15.50;99.90;;;;;;5092615;28;20223;-72
2022/11/15 08:43:58;;;;;;;8.23;3.60;;;-14.80;99.90;;;;;;5089331;28;20199;-77
2022/11/15 08:46:23;;;;;;;8.50;3.10;;;-15.70;99.90;;;;;;5089439;28;20647;-70
2022/11/15 08:48:49;;;;;;;8.90;3.10;;;-14.80;99.90;;;;;;5092712;28;20196;-71
2022/11/15 08:51:15;;;;;;;2.37;2.17;;;-16.20;99.90;;;;;;5097287;28;20184;-74
2022/11/15 08:53:41;;;;;;;3.17;2.37;;;-17.30;99.90;;;;;;5096027;28;20177;-73
2022/11/15 08:56:09;;;;;;;4.73;3.07;;;-16.20;99.90;;;;;;5097562;28;20315;-72
2022/11/15 08:58:35;;;;;;;5.00;2.93;;;-15.30;99.90;;;;;;5080180;28;20180;-72
2022/11/15 09:01:01;;;;;;;7.37;2.23;;;-17.10;99.90;;;;;;5090090;28;20174;-75
2022/11/15 09:03:27;;;;;;;4.47;1.90;;;-15.30;99.90;;;;;;5090246;28;20193;-73
2022/11/15 09:05:57;;;;;;;9.67;3.23;;;-19.40;99.90;;;;;;5096492;28;20185;-72
2022/11/15 09:08:23;;;;;;;8.73;2.13;;;-18.00;99.90;;;;;;5096241;28;20273;-72
2022/11/15 09:10:49;;;;;;;5.63;2.27;;;-17.10;99.90;;;;;;5092621;28;20473;-71
2022/11/15 09:13:15;;;;;;;7.20;3.33;;;-17.60;99.90;;;;;;5096269;28;20238;-73
2022/11/15 09:15:40;;;;;;;5.60;4.50;;;-18.30;99.90;;;;;;5095073;28;20598;-72
2022/11/15 09:18:06;;;;;;;4.87;3.07;;;-16.10;99.90;;;;;;5092117;28;20191;-72
2022/11/15 09:20:33;;;;;;;12.20;2.63;;;-14.60;99.90;;;;;;5097143;28;20185;-71
2022/11/15 09:23:02;;;;;;;2.73;2.03;;;-17.20;99.90;;;;;;5095806;28;20208;-72
2022/11/15 09:25:29;;;;;;;4.77;2.50;;;-16.50;99.90;;;;;;5091806;28;20178;-75
2022/11/15 09:27:55;;;;;;;7.80;2.33;;;-13.70;99.90;;;;;;5097458;28;20178;-75
2022/11/15 09:30:22;;;;;;;6.13;3.27;;;-21.40;99.90;;;;;;5091981;28;20189;-75
2022/11/15 09:32:47;;;;;;;13.23;4.57;;;-21.30;99.90;;;;;;5088696;28;20683;-77
2022/11/15 09:35:13;;;;;;;9.43;2.57;;;-15.20;99.90;;;;;;5084650;28;20279;-78
2022/11/15 09:37:39;;;;;;;5.43;3.70;;;-16.30;99.90;;;;;;5092867;28;20205;-76
2022/11/15 09:40:08;;;;;;;7.57;2.53;;;-21.60;99.90;;;;;;5095958;28;20177;-76
2022/11/15 09:43:04;;;;;;;6.97;4.93;;;-22.00;99.90;;;;;;5095483;28;20182;-74
2022/11/15 09:45:52;;;;;;;8.80;7.90;;;-20.30;99.90;;;;;;5094965;28;20265;-74
2022/11/15 09:48:35;;;;;;;6.53;3.93;;;-19.20;99.90;;;;;;5088714;28;20189;-75
2022/11/15 09:51:04;;;;;;;6.00;3.17;;;-17.60;99.90;;;;;;5092869;28;20613;-74
2022/11/15 09:53:38;;;;;;;2.40;1.97;;;-17.00;99.90;;;;;;5091892;28;20213;-76
2022/11/15 09:56:19;;;;;;;2.83;1.70;;;-20.10;99.90;;;;;;5092459;28;20202;-76
2022/11/15 09:59:01;;;;;;;3.50;1.37;;;-25.30;99.90;;;;;;5095982;28;20173;-76
2022/11/15 10:02:02;;;;;;;5.53;1.80;;;-22.00;99.90;;;;;;5088583;28;20585;-75
2022/11/15 10:04:28;;;;;;;10.07;2.50;;;-20.80;99.90;;;;;;5093866;28;20233;-75
2022/11/15 10:07:03;;;;;;;4.00;2.07;;;-19.30;99.90;;;;;;5096434;28;20213;-77
2022/11/15 10:09:41;;;;;;;6.37;1.57;;;-22.70;99.90;;;;;;5107942;27;20186;-75
2022/11/15 10:12:09;;;;;;;6.33;2.03;;;-23.30;99.90;;;;;;5090217;28;20182;-74
2022/11/15 10:14:36;;;;;;;9.03;1.73;;;-22.00;99.90;;;;;;5083631;28;20179;-75
2022/11/15 10:17:04;;;;;;;3.07;1.33;;;-18.70;99.90;;;;;;5088774;28;20747;-78
2022/11/15 10:19:54;;;;;;;5.27;1.67;;;-24.40;99.90;;;;;;5091935;28;20182;-78
2022/11/15 10:22:27;;;;;;;8.07;2.33;;;-23.30;99.90;;;;;;5090080;28;20179;-78
2022/11/15 10:25:08;;;;;;;10.67;1.73;;;-21.40;99.90;;;;;;5092441;28;20566;-76
2022/11/15 10:27:35;;;;;;;3.90;2.50;;;-24.50;99.90;;;;;;5084056;28;20615;-76
2022/11/15 10:30:03;;;;;;;2.83;1.60;;;-29.00;99.90;;;;;;5091160;28;20626;-74
2022/11/15 10:32:32;;;;;;;4.80;1.93;;;-25.70;99.90;;;;;;5089267;28;20236;-74
2022/11/15 10:34:58;;;;;;;3.90;1.50;;;-26.20;99.90;;;;;;5083536;28;20285;-71
2022/11/15 10:37:31;;;;;;;6.50;1.93;;;-23.00;99.90;;;;;;5091023;28;20246;-74
2022/11/15 10:40:06;;;;;;;4.30;1.60;;;-24.50;99.90;;;;;;5096203;28;20185;-74
2022/11/15 10:42:31;;;;;;;7.97;2.20;;;-21.50;99.90;;;;;;5088610;28;20189;-73
2022/11/15 10:44:57;;;;;;;6.73;2.03;;;-24.70;99.90;;;;;;5095731;28;20268;-75
2022/11/15 10:47:28;;;;;;;4.37;1.40;;;-26.10;99.90;;;;;;5083425;28;20490;-74
2022/11/15 10:49:57;;;;;;;4.87;1.30;;;-28.40;99.90;;;;;;5085843;28;20241;-72
2022/11/15 10:52:24;;;;;;;6.27;2.00;;;-27.00;99.90;;;;;;5091327;28;20197;-74
2022/11/15 10:55:11;;;;;;;3.37;1.30;;;-33.50;99.90;;;;;;5095818;28;20179;-74
2022/11/15 10:57:38;;;;;;;4.87;1.10;;;-25.90;99.90;;;;;;5095464;28;20305;-75
2022/11/15 11:00:24;;;;;;;8.83;1.60;;;-27.80;99.90;;;;;;5094290;28;20187;-73
2022/11/15 11:02:56;;;;;;;10.57;2.03;;;-26.70;99.90;;;;;;5089262;28;20191;-73
2022/11/15 11:05:26;;;;;;;4.37;1.60;;;-32.80;99.90;;;;;;5085416;28;20508;-72
2022/11/15 11:08:18;;;;;;;6.13;2.80;;;-31.80;99.90;;;;;;5094441;28;20483;-73
2022/11/15 11:11:04;;;;;;;9.20;1.83;;;-30.00;99.90;;;;;;5095016;28;20175;-72
2022/11/15 11:13:32;;;;;;;4.37;1.47;;;-32.80;99.90;;;;;;5086793;28;20177;-71
2022/11/15 11:16:06;;;;;;;3.50;1.50;;;-24.10;99.90;;;;;;5081982;28;20205;-73
2022/11/15 11:18:47;;;;;;;5.70;1.30;;;-26.30;99.90;;;;;;5095583;28;20189;-72
2022/11/15 11:21:20;;;;;;;5.00;1.60;;;-29.10;99.90;;;;;;5084433;28;20191;-73
2022/11/15 11:24:08;;;;;;;6.80;1.27;;;-35.90;99.90;;;;;;5084730;28;20180;-76
2022/11/15 11:27:18;;;;;;;3.00;1.57;;;-32.60;99.90;;;;;;5087401;28;20211;-72
2022/11/15 11:29:52;;;;;;;4.93;1.37;;;-36.40;99.90;;;;;;5085949;28;20650;-73
2022/11/15 11:32:38;;;;;;;5.10;1.40;;;-29.60;99.90;;;;;;5091362;28;20205;-74
2022/11/15 11:35:22;;;;;;;5.27;1.20;;;-32.90;99.90;;;;;;5095040;28;20238;-76
2022/11/15 11:37:57;;;;;;;5.60;1.37;;;-32.60;99.90;;;;;;5089346;28;20213;-76
2022/11/15 11:40:37;;;;;;;6.03;1.37;;;-27.80;99.90;;;;;;5084766;28;20184;-72
2022/11/15 11:43:34;;;;;;;9.93;3.00;;;-22.20;99.90;;;;;;5090681;28;20190;-76
2022/11/15 11:46:27;;;;;;;4.70;1.50;;;-24.00;99.90;;;;;;5084734;28;20528;-75
2022/11/15 11:49:19;;;;;;;6.23;1.73;;;-26.50;99.90;;;;;;5090802;28;20573;-75
2022/11/15 11:51:59;;;;;;;3.43;1.63;;;-24.70;99.90;;;;;;5054836;28;20228;-76
2022/11/15 11:54:51;;;;;;;6.00;1.60;;;-28.60;99.90;;;;;;5098362;28;20520;-73
2022/11/15 11:57:42;;;;;;;4.63;1.97;;;-28.20;99.90;;;;;;5095297;28;20259;-73
2022/11/15 12:00:22;;;;;;;4.97;1.00;;;-24.40;99.90;;;;;;5092290;28;20582;-72
2022/11/15 12:03:08;;;;;;;6.23;1.80;;;-21.30;99.90;;;;;;5084989;28;20606;-74
2022/11/15 12:05:43;;;;;;;4.93;1.67;;;-20.60;99.90;;;;;;5091689;28;20209;-74
2022/11/15 12:08:33;;;;;;;7.60;1.90;;;-20.90;99.90;;;;;;5094353;28;20580;-72
2022/11/15 12:11:20;;;;;;;4.03;2.20;;;-20.60;99.90;;;;;;5093280;28;20268;-73
2022/11/15 12:13:53;;;;;;;6.73;2.07;;;-20.80;99.90;;;;;;5098469;28;20212;-73
2022/11/15 12:16:29;;;;;;;8.03;2.20;;;-20.60;99.90;;;;;;5088473;28;20646;-74
2022/11/15 12:18:59;;;;;;;3.87;1.47;;;-21.10;99.90;;;;;;5093461;28;20488;-73
2022/11/15 12:21:50;;;;;;;6.20;1.63;;;-21.70;99.90;;;;;;5093784;28;20213;-72
2022/11/15 12:24:54;;;;;;;3.60;1.87;;;-15.90;99.90;;;;;;5087471;28;20186;-73
2022/11/15 12:27:46;;;;;;;4.17;1.37;;;-17.20;99.90;;;;;;5032974;28;20244;-74
2022/11/15 12:30:15;;;;;;;3.07;2.27;;;-16.80;99.90;;;;;;5097853;28;20206;-72
2022/11/15 12:32:54;;;;;;;4.97;1.17;;;-20.00;99.90;;;;;;5092066;28;20186;-73
2022/11/15 12:35:34;;;;;;;2.03;1.30;;;-20.80;99.90;;;;;;5093182;28;20628;-76
2022/11/15 12:37:59;;;;;;;2.33;1.53;;;-18.60;99.90;;;;;;5079566;28;20202;-76
2022/11/15 12:40:58;;;;;;;3.87;1.33;;;-24.20;99.90;;;;;;5092597;28;20178;-77
2022/11/15 12:43:40;;;;;;;5.27;1.30;;;-18.90;99.90;;;;;;5093861;28;20266;-76
2022/11/15 12:46:22;;;;;;;9.03;1.30;;;-18.90;99.90;;;;;;5097955;28;20180;-73
2022/11/15 12:48:53;;;;;;;3.37;1.10;;;-21.50;99.90;;;;;;5087312;28;20242;-77
2022/11/15 12:51:21;;;;;;;2.33;1.47;;;-22.10;99.90;;;;;;5096837;28;20282;-77
2022/11/15 12:53:47;;;;;;;2.00;1.37;;;-20.70;99.90;;;;;;5086366;28;20183;-74
2022/11/15 12:56:16;;;;;;;5.50;1.50;;;-21.90;99.90;;;;;;5091273;28;20208;-77
2022/11/15 12:58:51;;;;;;;4.50;1.70;;;-23.40;99.90;;;;;;5097577;28;20174;-75
2022/11/15 13:01:32;;;;;;;3.90;1.30;;;-23.80;99.90;;;;;;5096920;28;20588;-75
2022/11/15 13:04:19;;;;;;;3.33;1.87;;;-27.90;99.90;;;;;;5091237;28;20508;-75
2022/11/15 13:06:54;;;;;;;3.23;1.23;;;-22.00;99.90;;;;;;5092841;28;20517;-74
2022/11/15 13:09:28;;;;;;;4.63;1.90;;;-31.90;99.90;;;;;;5087943;28;20186;-76